This is the latest recevied weather packets stored in our database for station/object W7BL. If no packets are shown the sender has not sent any weather packets the latest 10 day(s).
| Time | Temp. | Humidity | Pressure | Rain* | Wind** | Luminosity | Snow |
|---|---|---|---|---|---|---|---|
| 1777703471 | 11.67° C | 61% | - | 0 mm | - | - | - |
| 1777703169 | 11.67° C | 60% | - | 0 mm | - | - | - |
| 1777702866 | 11.67° C | 61% | - | 0 mm | - | - | - |
| 1777702564 | 11.67° C | 61% | - | 0 mm | - | - | - |
| 1777702261 | 11.67° C | 61% | - | 0 mm | - | - | - |
| 1777701956 | 11.67° C | 60% | - | 0 mm | - | - | - |
| 1777701653 | 11.67° C | 60% | - | 0 mm | - | - | - |
| 1777701351 | 11.67° C | 60% | - | 0 mm | - | - | - |
| 1777701049 | 12.22° C | 58% | - | 0 mm | - | - | - |
| 1777700748 | 12.22° C | 57% | - | 0 mm | - | - | - |
| 1777700444 | 12.78° C | 55% | - | 0 mm | - | - | - |
| 1777700141 | 12.78° C | 56% | - | 0 mm | - | - | - |
| 1777699839 | 13.33° C | 55% | - | 0 mm | - | - | - |
| 1777699537 | 13.33° C | 51% | - | 0 mm | - | - | - |
| 1777699235 | 13.89° C | 51% | - | 0 mm | - | - | - |
| 1777698933 | 15° C | 47% | - | 0 mm | - | - | - |
| 1777698630 | 14.44° C | 47% | - | 0 mm | - | - | - |
| 1777698326 | 15° C | 47% | - | 0 mm | - | - | - |
| 1777698024 | 16.11° C | 42% | - | 0 mm | - | - | - |
| 1777697720 | 16.11° C | 42% | - | 0 mm | - | - | - |
| 1777697417 | 15° C | 44% | - | 0 mm | - | - | - |
| 1777697114 | 15.56° C | 44% | - | 0 mm | - | - | - |
| 1777696810 | 15.56° C | 43% | - | 0 mm | - | - | - |
| 1777696508 | 15.56° C | 42% | - | 0 mm | - | - | - |
| 1777696203 | 15.56° C | 43% | - | 0 mm | - | - | - |
* Rain latest hour (hover to see other rain measurements)
** Current wind speed in m/s (hover to see current wind gust speed)